LIBD/BRI METAR and TAF weather

Enter ICAO airport designator
Station Type Date Time Source
LIBD METAR 2021/06/24 05:50 UTC NOAA

LIBD 240550Z 19003KT CAVOK 31/16 Q1015


Station Type Date Time Source
LIBD Decoded METAR 2021/06/24 05:50 UTC NOAA

Bari / Palese Macchie, Italy (LIBD) 41-08N 016-47E 49M
Jun 24, 2021 - 01:50 AM EDT / 2021.06.24 0550 UTC
Wind: from the S (190 degrees) at 3 MPH (3 KT):0
Visibility: greater than 7 mile(s):0
Temperature: 87 F (31 C)
Dew Point: 60 F (16 C)
Relative Humidity: 40%
Pressure (altimeter): 29.97 in. Hg (1015 hPa)
ob: LIBD 240550Z 19003KT CAVOK 31/16 Q1015
cycle: 6

Station Type Date Time Source
LIBD TAF 2021/06/24 06:21 UTC NOAA

TAF TAF LIBD 240500Z 2406/2506 VRB05KT CAVOK
BECMG 2408/2410 06010KT
BECMG 2416/2418 VRB05KT

Example: see airport list